sensor_id;sensor_type;location;lat;lon;timestamp;pressure;altitude;pressure_sealevel;temperature;humidity
49813;BME280;35706;52.100;5.056;2023-03-23T00:00:22;100080.31;;;11.96;96.52
49813;BME280;35706;52.100;5.056;2023-03-23T00:01:22;100108.94;;;11.99;96.31
49813;BME280;35706;52.100;5.056;2023-03-23T00:02:29;100083.28;;;12.01;95.82
49813;BME280;35706;52.100;5.056;2023-03-23T00:03:33;100085.41;;;12.06;95.74
49813;BME280;35706;52.100;5.056;2023-03-23T00:04:33;100087.22;;;12.05;95.73
49813;BME280;35706;52.100;5.056;2023-03-23T00:05:33;100107.28;;;11.98;95.66
49813;BME280;35706;52.100;5.056;2023-03-23T00:06:36;100085.25;;;11.99;95.72
49813;BME280;35706;52.100;5.056;2023-03-23T00:07:37;100079.84;;;12.09;95.48
49813;BME280;35706;52.100;5.056;2023-03-23T00:08:38;100097.09;;;12.03;95.66
49813;BME280;35706;52.100;5.056;2023-03-23T00:09:44;100099.38;;;11.98;95.86
49813;BME280;35706;52.100;5.056;2023-03-23T00:10:48;100113.06;;;12.01;95.68
49813;BME280;35706;52.100;5.056;2023-03-23T00:11:48;100086.88;;;12.08;95.09
49813;BME280;35706;52.100;5.056;2023-03-23T00:12:48;100086.56;;;12.03;95.35
49813;BME280;35706;52.100;5.056;2023-03-23T00:13:50;100099.38;;;11.98;95.73
49813;BME280;35706;52.100;5.056;2023-03-23T00:14:51;100075.69;;;11.98;95.80
49813;BME280;35706;52.100;5.056;2023-03-23T00:15:54;100075.53;;;11.99;95.81
49813;BME280;35706;52.100;5.056;2023-03-23T00:16:57;100080.31;;;11.96;95.86
49813;BME280;35706;52.100;5.056;2023-03-23T00:17:57;100071.41;;;11.97;95.60
49813;BME280;35706;52.100;5.056;2023-03-23T00:19:10;100077.50;;;11.97;95.77
49813;BME280;35706;52.100;5.056;2023-03-23T00:20:13;100084.75;;;11.95;95.84
49813;BME280;35706;52.100;5.056;2023-03-23T00:21:13;100071.41;;;11.97;95.40
49813;BME280;35706;52.100;5.056;2023-03-23T00:22:15;100063.84;;;12.02;95.42
49813;BME280;35706;52.100;5.056;2023-03-23T00:23:18;100070.25;;;11.99;95.60
49813;BME280;35706;52.100;5.056;2023-03-23T00:24:22;100070.09;;;11.93;95.85
49813;BME280;35706;52.100;5.056;2023-03-23T00:25:23;100078.16;;;11.99;95.67
49813;BME280;35706;52.100;5.056;2023-03-23T00:26:23;100077.69;;;11.96;95.87
49813;BME280;35706;52.100;5.056;2023-03-23T00:27:23;100070.09;;;12.01;95.53
49813;BME280;35706;52.100;5.056;2023-03-23T00:28:25;100072.41;;;11.96;95.46
49813;BME280;35706;52.100;5.056;2023-03-23T00:29:26;100066.66;;;12.00;95.31
49813;BME280;35706;52.100;5.056;2023-03-23T00:30:26;100068.63;;;11.98;95.59
49813;BME280;35706;52.100;5.056;2023-03-23T00:31:27;100060.53;;;12.00;95.27
49813;BME280;35706;52.100;5.056;2023-03-23T00:32:31;100065.34;;;11.96;95.34
49813;BME280;35706;52.100;5.056;2023-03-23T00:33:33;100078.00;;;12.01;95.06
49813;BME280;35706;52.100;5.056;2023-03-23T00:34:39;100056.44;;;11.97;95.02
49813;BME280;35706;52.100;5.056;2023-03-23T00:35:40;100048.03;;;12.02;94.82
49813;BME280;35706;52.100;5.056;2023-03-23T00:36:41;100039.81;;;11.97;94.85
49813;BME280;35706;52.100;5.056;2023-03-23T00:37:43;100050.19;;;11.98;94.78
49813;BME280;35706;52.100;5.056;2023-03-23T00:38:44;100051.50;;;11.94;94.93
49813;BME280;35706;52.100;5.056;2023-03-23T00:39:44;100052.66;;;11.92;95.14
49813;BME280;35706;52.100;5.056;2023-03-23T00:40:46;100049.84;;;11.93;95.29
49813;BME280;35706;52.100;5.056;2023-03-23T00:41:47;100061.22;;;11.94;94.78
49813;BME280;35706;52.100;5.056;2023-03-23T00:42:47;100049.03;;;12.01;94.71
49813;BME280;35706;52.100;5.056;2023-03-23T00:43:48;100049.69;;;12.03;94.76
49813;BME280;35706;52.100;5.056;2023-03-23T00:44:48;100036.53;;;12.03;93.35
49813;BME280;35706;52.100;5.056;2023-03-23T00:45:50;100042.75;;;12.02;94.27
49813;BME280;35706;52.100;5.056;2023-03-23T00:46:52;100058.59;;;11.94;94.48
49813;BME280;35706;52.100;5.056;2023-03-23T00:47:56;100054.81;;;11.96;94.23
49813;BME280;35706;52.100;5.056;2023-03-23T00:48:57;100044.09;;;11.98;93.96
49813;BME280;35706;52.100;5.056;2023-03-23T00:49:57;100055.28;;;12.00;94.05
49813;BME280;35706;52.100;5.056;2023-03-23T00:50:57;100037.19;;;12.05;93.85
49813;BME280;35706;52.100;5.056;2023-03-23T00:51:57;100046.72;;;12.06;93.95
49813;BME280;35706;52.100;5.056;2023-03-23T00:52:58;100057.44;;;12.05;93.61
49813;BME280;35706;52.100;5.056;2023-03-23T00:53:58;100038.81;;;12.06;93.51
49813;BME280;35706;52.100;5.056;2023-03-23T00:54:59;100039.97;;;12.04;93.37
49813;BME280;35706;52.100;5.056;2023-03-23T00:55:59;100046.72;;;12.06;93.40
49813;BME280;35706;52.100;5.056;2023-03-23T00:57:00;100043.09;;;11.99;93.83
49813;BME280;35706;52.100;5.056;2023-03-23T00:58:00;100034.88;;;12.02;93.31
49813;BME280;35706;52.100;5.056;2023-03-23T00:59:01;100033.53;;;12.06;93.51
49813;BME280;35706;52.100;5.056;2023-03-23T01:00:03;100028.13;;;12.08;93.25
49813;BME280;35706;52.100;5.056;2023-03-23T01:01:09;100021.38;;;12.05;93.47
49813;BME280;35706;52.100;5.056;2023-03-23T01:02:10;100023.50;;;12.01;93.29
49813;BME280;35706;52.100;5.056;2023-03-23T01:03:10;100018.59;;;12.07;92.96
49813;BME280;35706;52.100;5.056;2023-03-23T01:04:18;100017.75;;;12.06;93.06
49813;BME280;35706;52.100;5.056;2023-03-23T01:05:20;100022.53;;;12.11;92.91
49813;BME280;35706;52.100;5.056;2023-03-23T01:06:20;100022.84;;;12.08;92.79
49813;BME280;35706;52.100;5.056;2023-03-23T01:07:21;100018.41;;;12.16;92.92
49813;BME280;35706;52.100;5.056;2023-03-23T01:08:23;100023.00;;;12.06;92.91
49813;BME280;35706;52.100;5.056;2023-03-23T01:09:24;100045.41;;;12.10;92.70
49813;BME280;35706;52.100;5.056;2023-03-23T01:10:25;100041.44;;;12.14;92.37
49813;BME280;35706;52.100;5.056;2023-03-23T01:11:26;100034.84;;;12.18;92.47
49813;BME280;35706;52.100;5.056;2023-03-23T01:12:26;100046.06;;;12.04;92.81
49813;BME280;35706;52.100;5.056;2023-03-23T01:13:27;100039.47;;;12.08;92.72
49813;BME280;35706;52.100;5.056;2023-03-23T01:14:27;100062.34;;;11.99;93.05
49813;BME280;35706;52.100;5.056;2023-03-23T01:15:28;100047.06;;;12.03;92.83
49813;BME280;35706;52.100;5.056;2023-03-23T01:16:29;100037.50;;;12.02;92.90
49813;BME280;35706;52.100;5.056;2023-03-23T01:17:30;100029.13;;;12.07;92.70
49813;BME280;35706;52.100;5.056;2023-03-23T01:18:31;100045.75;;;12.07;92.38
49813;BME280;35706;52.100;5.056;2023-03-23T01:19:31;100028.28;;;12.06;92.27
49813;BME280;35706;52.100;5.056;2023-03-23T01:20:32;100009.53;;;12.09;92.27
49813;BME280;35706;52.100;5.056;2023-03-23T01:21:32;99997.50;;;12.07;92.43
49813;BME280;35706;52.100;5.056;2023-03-23T01:22:33;100010.50;;;12.08;92.79
49813;BME280;35706;52.100;5.056;2023-03-23T01:23:34;100036.38;;;12.13;92.06
49813;BME280;35706;52.100;5.056;2023-03-23T01:24:34;100010.84;;;12.13;91.77
49813;BME280;35706;52.100;5.056;2023-03-23T01:25:35;100004.41;;;12.08;92.34
49813;BME280;35706;52.100;5.056;2023-03-23T01:26:36;100002.94;;;12.13;92.34
49813;BME280;35706;52.100;5.056;2023-03-23T01:27:37;100002.56;;;12.25;91.66
49813;BME280;35706;52.100;5.056;2023-03-23T01:28:39;100006.03;;;12.25;91.59
49813;BME280;35706;52.100;5.056;2023-03-23T01:29:40;99996.00;;;12.12;91.54
49813;BME280;35706;52.100;5.056;2023-03-23T01:30:40;99988.44;;;12.09;92.18
49813;BME280;35706;52.100;5.056;2023-03-23T01:31:40;100005.22;;;12.16;92.08
49813;BME280;35706;52.100;5.056;2023-03-23T01:32:42;100004.91;;;12.11;91.74
49813;BME280;35706;52.100;5.056;2023-03-23T01:33:43;100002.59;;;12.16;91.63
49813;BME280;35706;52.100;5.056;2023-03-23T01:34:44;99999.97;;;12.08;91.81
49813;BME280;35706;52.100;5.056;2023-03-23T01:35:44;99997.84;;;12.04;92.03
49813;BME280;35706;52.100;5.056;2023-03-23T01:36:44;99999.31;;;12.06;91.96
49813;BME280;35706;52.100;5.056;2023-03-23T01:37:45;99991.09;;;12.09;91.91
49813;BME280;35706;52.100;5.056;2023-03-23T01:38:46;100020.56;;;12.13;91.55
49813;BME280;35706;52.100;5.056;2023-03-23T01:39:47;99980.84;;;12.14;91.59
49813;BME280;35706;52.100;5.056;2023-03-23T01:40:47;99986.13;;;12.14;91.37
49813;BME280;35706;52.100;5.056;2023-03-23T01:41:47;100017.59;;;12.16;91.43
49813;BME280;35706;52.100;5.056;2023-03-23T01:42:48;99998.47;;;12.14;91.21
49813;BME280;35706;52.100;5.056;2023-03-23T01:44:02;99997.47;;;12.15;91.21
49813;BME280;35706;52.100;5.056;2023-03-23T01:46:19;99991.25;;;12.08;91.75
49813;BME280;35706;52.100;5.056;2023-03-23T01:47:22;99995.34;;;12.10;91.58
49813;BME280;35706;52.100;5.056;2023-03-23T01:48:30;100014.44;;;12.12;91.49
49813;BME280;35706;52.100;5.056;2023-03-23T01:49:35;100002.94;;;12.13;91.38
49813;BME280;35706;52.100;5.056;2023-03-23T01:50:58;100010.34;;;12.18;91.27
49813;BME280;35706;52.100;5.056;2023-03-23T01:52:03;100011.66;;;12.14;91.28
49813;BME280;35706;52.100;5.056;2023-03-23T01:53:06;100013.47;;;12.13;91.50
49813;BME280;35706;52.100;5.056;2023-03-23T01:54:11;99998.13;;;12.17;91.40
49813;BME280;35706;52.100;5.056;2023-03-23T01:55:13;99999.50;;;12.13;91.26
49813;BME280;35706;52.100;5.056;2023-03-23T01:56:16;100003.41;;;12.17;91.35
49813;BME280;35706;52.100;5.056;2023-03-23T01:57:21;99973.59;;;12.16;91.40
49813;BME280;35706;52.100;5.056;2023-03-23T01:58:27;99983.63;;;12.21;91.09
49813;BME280;35706;52.100;5.056;2023-03-23T01:59:28;99999.28;;;12.14;91.25
49813;BME280;35706;52.100;5.056;2023-03-23T02:00:29;100008.84;;;12.15;91.38
49813;BME280;35706;52.100;5.056;2023-03-23T02:01:30;100008.34;;;12.12;91.40
49813;BME280;35706;52.100;5.056;2023-03-23T02:02:30;99992.91;;;12.09;91.67
49813;BME280;35706;52.100;5.056;2023-03-23T02:03:35;99997.31;;;12.08;91.67
49813;BME280;35706;52.100;5.056;2023-03-23T02:04:37;99982.16;;;12.18;91.16
49813;BME280;35706;52.100;5.056;2023-03-23T02:05:40;99982.00;;;12.20;91.01
49813;BME280;35706;52.100;5.056;2023-03-23T02:06:41;99968.84;;;12.20;91.13
49813;BME280;35706;52.100;5.056;2023-03-23T02:07:42;99987.28;;;12.20;91.24
49813;BME280;35706;52.100;5.056;2023-03-23T02:08:43;99975.09;;;12.19;91.40
49813;BME280;35706;52.100;5.056;2023-03-23T02:09:44;99983.69;;;12.13;91.36
49813;BME280;35706;52.100;5.056;2023-03-23T02:10:45;99984.16;;;12.16;91.49
49813;BME280;35706;52.100;5.056;2023-03-23T02:11:46;99985.97;;;12.24;90.72
49813;BME280;35706;52.100;5.056;2023-03-23T02:12:47;99989.41;;;12.16;91.22
49813;BME280;35706;52.100;5.056;2023-03-23T02:13:48;99978.38;;;12.21;91.12
49813;BME280;35706;52.100;5.056;2023-03-23T02:14:48;99974.91;;;12.20;90.96
49813;BME280;35706;52.100;5.056;2023-03-23T02:16:15;99994.69;;;12.16;91.28
49813;BME280;35706;52.100;5.056;2023-03-23T02:17:40;99995.19;;;12.20;91.24
49813;BME280;35706;52.100;5.056;2023-03-23T02:18:51;100004.25;;;12.17;91.32
49813;BME280;35706;52.100;5.056;2023-03-23T02:26:38;99976.25;;;12.16;91.25
49813;BME280;35706;52.100;5.056;2023-03-23T02:35:20;99971.31;;;12.21;91.45
49813;BME280;35706;52.100;5.056;2023-03-23T02:36:41;99971.97;;;12.24;91.39
49813;BME280;35706;52.100;5.056;2023-03-23T02:37:55;99973.28;;;12.19;91.59
49813;BME280;35706;52.100;5.056;2023-03-23T02:40:32;100000.09;;;12.23;91.32
49813;BME280;35706;52.100;5.056;2023-03-23T02:41:35;99981.19;;;12.28;90.86
49813;BME280;35706;52.100;5.056;2023-03-23T02:42:39;99995.03;;;12.21;91.22
49813;BME280;35706;52.100;5.056;2023-03-23T02:43:44;99990.88;;;12.27;91.04
49813;BME280;35706;52.100;5.056;2023-03-23T02:44:46;100011.50;;;12.24;91.05
49813;BME280;35706;52.100;5.056;2023-03-23T02:45:48;99996.00;;;12.29;90.64
49813;BME280;35706;52.100;5.056;2023-03-23T02:46:51;99991.53;;;12.29;90.87
49813;BME280;35706;52.100;5.056;2023-03-23T02:47:53;99974.56;;;12.32;90.56
49813;BME280;35706;52.100;5.056;2023-03-23T02:48:55;99982.97;;;12.27;90.92
49813;BME280;35706;52.100;5.056;2023-03-23T02:49:57;99976.72;;;12.28;90.90
49813;BME280;35706;52.100;5.056;2023-03-23T02:51:00;99976.88;;;12.27;90.76
49813;BME280;35706;52.100;5.056;2023-03-23T02:52:08;99979.88;;;12.24;90.83
49813;BME280;35706;52.100;5.056;2023-03-23T02:53:13;99975.91;;;12.28;90.75
49813;BME280;35706;52.100;5.056;2023-03-23T02:54:17;99971.97;;;12.24;90.93
49813;BME280;35706;52.100;5.056;2023-03-23T02:55:19;99982.31;;;12.17;91.35
49813;BME280;35706;52.100;5.056;2023-03-23T02:56:25;99978.22;;;12.22;91.25
49813;BME280;35706;52.100;5.056;2023-03-23T02:57:28;99968.16;;;12.26;90.72
49813;BME280;35706;52.100;5.056;2023-03-23T02:58:29;99959.91;;;12.29;90.83
49813;BME280;35706;52.100;5.056;2023-03-23T02:59:29;99957.13;;;12.31;90.49
49813;BME280;35706;52.100;5.056;2023-03-23T03:00:32;99959.41;;;12.34;89.88
49813;BME280;35706;52.100;5.056;2023-03-23T03:02:35;99967.66;;;12.31;89.96
49813;BME280;35706;52.100;5.056;2023-03-23T03:03:36;99961.56;;;12.30;90.17
49813;BME280;35706;52.100;5.056;2023-03-23T03:04:38;99962.75;;;12.28;90.43
49813;BME280;35706;52.100;5.056;2023-03-23T03:06:02;99980.00;;;12.30;90.26
49813;BME280;35706;52.100;5.056;2023-03-23T03:08:44;99961.88;;;12.35;89.65
49813;BME280;35706;52.100;5.056;2023-03-23T03:09:56;99962.03;;;12.34;89.72
49813;BME280;35706;52.100;5.056;2023-03-23T03:11:05;99963.84;;;12.33;89.37
49813;BME280;35706;52.100;5.056;2023-03-23T03:12:14;99962.38;;;12.31;89.69
49813;BME280;35706;52.100;5.056;2023-03-23T03:13:29;99962.22;;;12.32;89.86
49813;BME280;35706;52.100;5.056;2023-03-23T03:14:38;99960.41;;;12.33;89.39
49813;BME280;35706;52.100;5.056;2023-03-23T03:15:48;99974.72;;;12.38;89.14
49813;BME280;35706;52.100;5.056;2023-03-23T03:17:00;99953.97;;;12.35;89.11
49813;BME280;35706;52.100;5.056;2023-03-23T03:18:12;99952.63;;;12.39;89.05
49813;BME280;35706;52.100;5.056;2023-03-23T03:20:19;99973.22;;;12.36;89.29
49813;BME280;35706;52.100;5.056;2023-03-23T03:21:24;99946.41;;;12.40;88.75
49813;BME280;35706;52.100;5.056;2023-03-23T03:22:26;99945.56;;;12.40;88.75
49813;BME280;35706;52.100;5.056;2023-03-23T03:23:32;99958.06;;;12.46;88.66
49813;BME280;35706;52.100;5.056;2023-03-23T03:24:35;99960.53;;;12.39;89.29
49813;BME280;35706;52.100;5.056;2023-03-23T03:25:37;99947.38;;;12.39;89.07
49813;BME280;35706;52.100;5.056;2023-03-23T03:26:39;99972.56;;;12.42;88.92
49813;BME280;35706;52.100;5.056;2023-03-23T03:27:43;99957.06;;;12.47;88.73
49813;BME280;35706;52.100;5.056;2023-03-23T03:28:47;99944.88;;;12.46;88.99
49813;BME280;35706;52.100;5.056;2023-03-23T03:29:53;99943.41;;;12.43;89.07
49813;BME280;35706;52.100;5.056;2023-03-23T03:30:56;99938.63;;;12.47;88.96
49813;BME280;35706;52.100;5.056;2023-03-23T03:32:02;99940.25;;;12.48;88.75
49813;BME280;35706;52.100;5.056;2023-03-23T03:33:07;99929.91;;;12.47;88.76
49813;BME280;35706;52.100;5.056;2023-03-23T03:34:08;99937.97;;;12.45;88.93
49813;BME280;35706;52.100;5.056;2023-03-23T03:35:08;99945.72;;;12.47;88.92
49813;BME280;35706;52.100;5.056;2023-03-23T03:36:15;99961.06;;;12.35;89.65
49813;BME280;35706;52.100;5.056;2023-03-23T03:37:17;99941.16;;;12.32;89.94
49813;BME280;35706;52.100;5.056;2023-03-23T03:38:18;99939.69;;;12.30;90.07
49813;BME280;35706;52.100;5.056;2023-03-23T03:39:19;99938.31;;;12.34;90.03
49813;BME280;35706;52.100;5.056;2023-03-23T03:40:21;99956.13;;;12.32;90.37
49813;BME280;35706;52.100;5.056;2023-03-23T03:41:21;99951.84;;;12.31;90.14
49813;BME280;35706;52.100;5.056;2023-03-23T03:42:22;99961.91;;;12.27;90.29
49813;BME280;35706;52.100;5.056;2023-03-23T03:43:22;99938.50;;;12.32;90.09
49813;BME280;35706;52.100;5.056;2023-03-23T03:44:22;99939.31;;;12.33;89.75
49813;BME280;35706;52.100;5.056;2023-03-23T03:45:23;99950.03;;;12.31;89.89
49813;BME280;35706;52.100;5.056;2023-03-23T03:46:23;99958.75;;;12.32;89.86
49813;BME280;35706;52.100;5.056;2023-03-23T03:47:26;99958.13;;;12.30;89.83
49813;BME280;35706;52.100;5.056;2023-03-23T03:48:27;99956.94;;;12.32;89.70
49813;BME280;35706;52.100;5.056;2023-03-23T03:49:27;99966.50;;;12.33;89.75
49813;BME280;35706;52.100;5.056;2023-03-23T03:50:28;99945.56;;;12.40;89.56
49813;BME280;35706;52.100;5.056;2023-03-23T03:51:29;99951.81;;;12.39;89.52
49813;BME280;35706;52.100;5.056;2023-03-23T03:52:31;99949.19;;;12.39;89.38
49813;BME280;35706;52.100;5.056;2023-03-23T03:53:31;99939.97;;;12.35;89.66
49813;BME280;35706;52.100;5.056;2023-03-23T03:54:32;99948.69;;;12.35;89.24
49813;BME280;35706;52.100;5.056;2023-03-23T03:55:33;99943.25;;;12.37;89.63
49813;BME280;35706;52.100;5.056;2023-03-23T03:56:38;99945.41;;;12.33;89.48
49813;BME280;35706;52.100;5.056;2023-03-23T03:57:41;99948.22;;;12.32;89.98
49813;BME280;35706;52.100;5.056;2023-03-23T03:58:42;99945.41;;;12.33;90.18
49813;BME280;35706;52.100;5.056;2023-03-23T03:59:42;99961.72;;;12.29;89.88
49813;BME280;35706;52.100;5.056;2023-03-23T04:00:43;99956.31;;;12.30;89.82
49813;BME280;35706;52.100;5.056;2023-03-23T04:01:47;99963.72;;;12.27;90.01
49813;BME280;35706;52.100;5.056;2023-03-23T04:02:54;99984.78;;;12.35;89.28
49813;BME280;35706;52.100;5.056;2023-03-23T04:03:55;99965.69;;;12.33;89.38
49813;BME280;35706;52.100;5.056;2023-03-23T04:04:55;99948.03;;;12.33;89.40
49813;BME280;35706;52.100;5.056;2023-03-23T04:05:55;99949.22;;;12.31;89.31
49813;BME280;35706;52.100;5.056;2023-03-23T04:06:56;99961.38;;;12.32;89.19
49813;BME280;35706;52.100;5.056;2023-03-23T04:07:57;99969.47;;;12.30;88.94
49813;BME280;35706;52.100;5.056;2023-03-23T04:09:04;99966.03;;;12.30;89.00
49813;BME280;35706;52.100;5.056;2023-03-23T04:10:10;99953.47;;;12.32;88.82
49813;BME280;35706;52.100;5.056;2023-03-23T04:11:14;99952.50;;;12.33;89.07
49813;BME280;35706;52.100;5.056;2023-03-23T04:12:15;99955.50;;;12.30;88.91
49813;BME280;35706;52.100;5.056;2023-03-23T04:13:16;99954.84;;;12.28;89.34
49813;BME280;35706;52.100;5.056;2023-03-23T04:14:16;99965.19;;;12.29;88.93
49813;BME280;35706;52.100;5.056;2023-03-23T04:15:17;99966.03;;;12.30;88.55
49813;BME280;35706;52.100;5.056;2023-03-23T04:16:18;99968.00;;;12.28;88.62
49813;BME280;35706;52.100;5.056;2023-03-23T04:17:18;99956.31;;;12.30;88.29
49813;BME280;35706;52.100;5.056;2023-03-23T04:18:20;99969.47;;;12.30;88.24
49813;BME280;35706;52.100;5.056;2023-03-23T04:19:21;99965.84;;;12.31;87.84
49813;BME280;35706;52.100;5.056;2023-03-23T04:20:22;99966.66;;;12.32;87.93
49813;BME280;35706;52.100;5.056;2023-03-23T04:21:23;99971.91;;;12.32;88.08
49813;BME280;35706;52.100;5.056;2023-03-23T04:22:24;99986.91;;;12.31;87.71
49813;BME280;35706;52.100;5.056;2023-03-23T04:23:32;99959.25;;;12.27;87.89
49813;BME280;35706;52.100;5.056;2023-03-23T04:24:35;99972.56;;;12.34;87.53
49813;BME280;35706;52.100;5.056;2023-03-23T04:25:35;99969.78;;;12.35;87.65
49813;BME280;35706;52.100;5.056;2023-03-23T04:26:35;99980.31;;;12.35;87.50
49813;BME280;35706;52.100;5.056;2023-03-23T04:27:36;99973.59;;;12.33;87.65
49813;BME280;35706;52.100;5.056;2023-03-23T04:28:36;99977.69;;;12.35;87.61
49813;BME280;35706;52.100;5.056;2023-03-23T04:29:38;100000.75;;;12.33;87.53
49813;BME280;35706;52.100;5.056;2023-03-23T04:30:39;100000.91;;;12.32;87.72
49813;BME280;35706;52.100;5.056;2023-03-23T04:31:43;99972.44;;;12.27;87.66
49813;BME280;35706;52.100;5.056;2023-03-23T04:32:45;99986.59;;;12.26;87.73
49813;BME280;35706;52.100;5.056;2023-03-23T04:33:45;99975.41;;;12.24;87.95
49813;BME280;35706;52.100;5.056;2023-03-23T04:34:46;99971.63;;;12.18;88.29
49813;BME280;35706;52.100;5.056;2023-03-23T04:35:48;99995.03;;;12.21;87.79
49813;BME280;35706;52.100;5.056;2023-03-23T04:36:48;99985.47;;;12.20;87.50
49813;BME280;35706;52.100;5.056;2023-03-23T04:37:49;100022.03;;;12.24;87.03
49813;BME280;35706;52.100;5.056;2023-03-23T04:38:49;99988.91;;;12.29;86.82
49813;BME280;35706;52.100;5.056;2023-03-23T04:39:52;99989.41;;;12.25;87.16
49813;BME280;35706;52.100;5.056;2023-03-23T04:41:00;99997.47;;;12.23;87.51
49813;BME280;35706;52.100;5.056;2023-03-23T04:42:02;100009.31;;;12.27;87.28
49813;BME280;35706;52.100;5.056;2023-03-23T04:43:02;99996.34;;;12.26;86.99
49813;BME280;35706;52.100;5.056;2023-03-23T04:44:06;100013.28;;;12.23;87.16
49813;BME280;35706;52.100;5.056;2023-03-23T04:45:07;99998.47;;;12.22;87.09
49813;BME280;35706;52.100;5.056;2023-03-23T04:46:08;99985.47;;;12.20;87.26
49813;BME280;35706;52.100;5.056;2023-03-23T04:47:08;99999.78;;;12.18;87.35
49813;BME280;35706;52.100;5.056;2023-03-23T04:48:09;100034.84;;;12.18;87.32
49813;BME280;35706;52.100;5.056;2023-03-23T04:49:11;99998.47;;;12.22;87.45
49813;BME280;35706;52.100;5.056;2023-03-23T04:50:14;99993.53;;;12.19;87.53
49813;BME280;35706;52.100;5.056;2023-03-23T04:51:14;100020.88;;;12.18;87.91
49813;BME280;35706;52.100;5.056;2023-03-23T04:52:15;100002.28;;;12.19;88.46
49813;BME280;35706;52.100;5.056;2023-03-23T04:53:15;100008.84;;;12.15;88.74
49813;BME280;35706;52.100;5.056;2023-03-23T04:54:17;100020.22;;;12.08;89.56
49813;BME280;35706;52.100;5.056;2023-03-23T04:55:18;100018.75;;;12.05;90.17
49813;BME280;35706;52.100;5.056;2023-03-23T04:56:20;100017.44;;;12.01;90.68
49813;BME280;35706;52.100;5.056;2023-03-23T04:57:21;100025.66;;;11.98;90.92
49813;BME280;35706;52.100;5.056;2023-03-23T04:58:21;100023.00;;;11.98;91.27
49813;BME280;35706;52.100;5.056;2023-03-23T04:59:23;99998.03;;;11.94;91.29
49813;BME280;35706;52.100;5.056;2023-03-23T05:00:27;100017.28;;;12.02;90.84
49813;BME280;35706;52.100;5.056;2023-03-23T05:01:28;100054.97;;;11.95;91.45
49813;BME280;35706;52.100;5.056;2023-03-23T05:02:29;100028.47;;;11.96;91.82
49813;BME280;35706;52.100;5.056;2023-03-23T05:03:30;100025.66;;;11.90;92.60
49813;BME280;35706;52.100;5.056;2023-03-23T05:04:30;100005.25;;;11.92;93.22
49813;BME280;35706;52.100;5.056;2023-03-23T05:05:31;100015.09;;;11.81;93.87
49813;BME280;35706;52.100;5.056;2023-03-23T05:06:31;100036.31;;;11.80;93.48
49813;BME280;35706;52.100;5.056;2023-03-23T05:07:32;100016.06;;;11.80;94.05
49813;BME280;35706;52.100;5.056;2023-03-23T05:08:32;100027.09;;;11.76;94.56
49813;BME280;35706;52.100;5.056;2023-03-23T05:09:34;100020.50;;;11.72;95.34
49813;BME280;35706;52.100;5.056;2023-03-23T05:10:35;100028.09;;;11.67;95.39
49813;BME280;35706;52.100;5.056;2023-03-23T05:11:35;100029.06;;;11.57;97.00
49813;BME280;35706;52.100;5.056;2023-03-23T05:12:36;100022.31;;;11.55;97.39
49813;BME280;35706;52.100;5.056;2023-03-23T05:13:36;100038.75;;;11.57;97.74
49813;BME280;35706;52.100;5.056;2023-03-23T05:14:40;100031.50;;;11.51;98.97
49813;BME280;35706;52.100;5.056;2023-03-23T05:15:41;100020.81;;;11.44;99.72
49813;BME280;35706;52.100;5.056;2023-03-23T05:16:41;100031.16;;;11.29;100.00
49813;BME280;35706;52.100;5.056;2023-03-23T05:17:42;100022.44;;;11.29;100.00
49813;BME280;35706;52.100;5.056;2023-03-23T05:18:46;100028.84;;;11.26;100.00
49813;BME280;35706;52.100;5.056;2023-03-23T05:19:46;100038.72;;;11.24;100.00
49813;BME280;35706;52.100;5.056;2023-03-23T05:20:47;100043.28;;;11.14;100.00
49813;BME280;35706;52.100;5.056;2023-03-23T05:21:48;100026.81;;;11.12;100.00
49813;BME280;35706;52.100;5.056;2023-03-23T05:22:49;100040.94;;;11.11;100.00
49813;BME280;35706;52.100;5.056;2023-03-23T05:23:49;100041.59;;;11.13;100.00
49813;BME280;35706;52.100;5.056;2023-03-23T05:24:54;100044.91;;;11.15;100.00
49813;BME280;35706;52.100;5.056;2023-03-23T05:25:56;100039.78;;;11.05;100.00
49813;BME280;35706;52.100;5.056;2023-03-23T05:27:00;100039.47;;;11.08;100.00
49813;BME280;35706;52.100;5.056;2023-03-23T05:28:00;100036.34;;;11.13;100.00
49813;BME280;35706;52.100;5.056;2023-03-23T05:29:01;100040.50;;;11.15;100.00
49813;BME280;35706;52.100;5.056;2023-03-23T05:30:02;100046.56;;;11.16;100.00
49813;BME280;35706;52.100;5.056;2023-03-23T05:31:03;100030.31;;;11.20;100.00
49813;BME280;35706;52.100;5.056;2023-03-23T05:32:04;100043.28;;;11.14;100.00
49813;BME280;35706;52.100;5.056;2023-03-23T05:33:05;100041.78;;;11.19;100.00
49813;BME280;35706;52.100;5.056;2023-03-23T05:34:06;100038.69;;;11.16;100.00
49813;BME280;35706;52.100;5.056;2023-03-23T05:35:07;100054.78;;;11.21;100.00
49813;BME280;35706;52.100;5.056;2023-03-23T05:36:07;100041.63;;;11.21;100.00
49813;BME280;35706;52.100;5.056;2023-03-23T05:37:10;100041.63;;;11.21;100.00
49813;BME280;35706;52.100;5.056;2023-03-23T05:38:12;100044.59;;;11.18;100.00
49813;BME280;35706;52.100;5.056;2023-03-23T05:39:12;100046.91;;;11.21;100.00
49813;BME280;35706;52.100;5.056;2023-03-23T05:40:16;100033.25;;;11.26;100.00
49813;BME280;35706;52.100;5.056;2023-03-23T05:41:16;100051.22;;;11.30;100.00
49813;BME280;35706;52.100;5.056;2023-03-23T05:42:17;100039.53;;;11.25;100.00
49813;BME280;35706;52.100;5.056;2023-03-23T05:43:17;100048.72;;;11.20;100.00
49813;BME280;35706;52.100;5.056;2023-03-23T05:44:17;100044.63;;;11.26;100.00
49813;BME280;35706;52.100;5.056;2023-03-23T05:45:18;100051.34;;;11.20;100.00
49813;BME280;35706;52.100;5.056;2023-03-23T05:46:18;100048.38;;;11.24;100.00
49813;BME280;35706;52.100;5.056;2023-03-23T05:47:19;100058.91;;;11.24;100.00
49813;BME280;35706;52.100;5.056;2023-03-23T05:48:19;100049.34;;;11.14;100.00